sensor_id;sensor_type;location;lat;lon;timestamp;pressure;altitude;pressure_sealevel;temperature;humidity
72162;BME280;66366;51.646;5.842;2022-12-29T00:01:14;99980.0;;;17.5;55.5
72162;BME280;66366;51.646;5.842;2022-12-29T00:06:14;99960.0;;;17.5;55.5
72162;BME280;66366;51.646;5.842;2022-12-29T00:11:17;99950.0;;;17.5;55.5
72162;BME280;66366;51.646;5.842;2022-12-29T00:16:14;99960.0;;;17.5;55.5
72162;BME280;66366;51.646;5.842;2022-12-29T00:21:15;99940.0;;;17.5;55.5
72162;BME280;66366;51.646;5.842;2022-12-29T00:26:17;99940.0;;;17.5;55.5
72162;BME280;66366;51.646;5.842;2022-12-29T00:31:14;99950.0;;;17.5;55.5
72162;BME280;66366;51.646;5.842;2022-12-29T00:36:20;99930.0;;;17.5;55.5
72162;BME280;66366;51.646;5.842;2022-12-29T00:41:14;99910.0;;;17.5;55.5
72162;BME280;66366;51.646;5.842;2022-12-29T00:46:14;99920.0;;;17.5;55.5
72162;BME280;66366;51.646;5.842;2022-12-29T00:51:14;99910.0;;;17.6;55.5
72162;BME280;66366;51.646;5.842;2022-12-29T00:56:14;99910.0;;;17.5;56.0
72162;BME280;66366;51.646;5.842;2022-12-29T01:01:14;99910.0;;;17.5;56.0
72162;BME280;66366;51.646;5.842;2022-12-29T01:06:14;99900.0;;;17.5;55.5
72162;BME280;66366;51.646;5.842;2022-12-29T01:11:14;99900.0;;;17.5;55.5
72162;BME280;66366;51.646;5.842;2022-12-29T01:16:14;99890.0;;;17.6;55.5
72162;BME280;66366;51.646;5.842;2022-12-29T01:21:14;99900.0;;;17.5;55.5
72162;BME280;66366;51.646;5.842;2022-12-29T01:26:17;99870.0;;;17.5;56.0
72162;BME280;66366;51.646;5.842;2022-12-29T01:31:15;99880.0;;;17.5;55.5
72162;BME280;66366;51.646;5.842;2022-12-29T01:36:16;99880.0;;;17.6;55.5
72162;BME280;66366;51.646;5.842;2022-12-29T01:41:15;99870.0;;;17.5;56.0
72162;BME280;66366;51.646;5.842;2022-12-29T01:46:20;99860.0;;;17.5;56.0
72162;BME280;66366;51.646;5.842;2022-12-29T01:51:14;99850.0;;;17.5;56.0
72162;BME280;66366;51.646;5.842;2022-12-29T01:56:19;99850.0;;;17.5;56.0
72162;BME280;66366;51.646;5.842;2022-12-29T02:01:15;99850.0;;;17.6;55.5
72162;BME280;66366;51.646;5.842;2022-12-29T02:06:17;99860.0;;;17.5;56.0
72162;BME280;66366;51.646;5.842;2022-12-29T02:11:15;99850.0;;;17.6;56.0
72162;BME280;66366;51.646;5.842;2022-12-29T02:16:29;99860.0;;;17.6;56.0
72162;BME280;66366;51.646;5.842;2022-12-29T02:23:26;99870.0;;;17.6;56.0
72162;BME280;66366;51.646;5.842;2022-12-29T02:30:11;99870.0;;;17.6;56.0
72162;BME280;66366;51.646;5.842;2022-12-29T02:34:20;99850.0;;;17.5;56.0
72162;BME280;66366;51.646;5.842;2022-12-29T02:39:15;99850.0;;;17.6;56.0
72162;BME280;66366;51.646;5.842;2022-12-29T02:43:53;99850.0;;;17.6;56.0
72162;BME280;66366;51.646;5.842;2022-12-29T02:47:55;99840.0;;;17.6;56.0
72162;BME280;66366;51.646;5.842;2022-12-29T02:51:46;99840.0;;;17.6;56.0
72162;BME280;66366;51.646;5.842;2022-12-29T02:56:14;99850.0;;;17.6;56.0
72162;BME280;66366;51.646;5.842;2022-12-29T03:02:06;99840.0;;;17.6;56.0
72162;BME280;66366;51.646;5.842;2022-12-29T03:07:44;99840.0;;;17.6;56.0
72162;BME280;66366;51.646;5.842;2022-12-29T03:11:16;99830.0;;;17.6;56.0
72162;BME280;66366;51.646;5.842;2022-12-29T03:16:32;99830.0;;;17.5;56.0
72162;BME280;66366;51.646;5.842;2022-12-29T03:21:18;99820.0;;;17.6;56.0
72162;BME280;66366;51.646;5.842;2022-12-29T03:26:17;99830.0;;;17.6;56.0
72162;BME280;66366;51.646;5.842;2022-12-29T03:31:15;99830.0;;;17.6;56.0
72162;BME280;66366;51.646;5.842;2022-12-29T03:36:20;99820.0;;;17.6;56.0
72162;BME280;66366;51.646;5.842;2022-12-29T03:41:17;99830.0;;;17.6;56.0
72162;BME280;66366;51.646;5.842;2022-12-29T03:46:14;99820.0;;;17.6;56.0
72162;BME280;66366;51.646;5.842;2022-12-29T03:51:14;99800.0;;;17.6;56.0
72162;BME280;66366;51.646;5.842;2022-12-29T03:56:14;99820.0;;;17.6;56.0
72162;BME280;66366;51.646;5.842;2022-12-29T04:01:14;99820.0;;;17.6;56.0
72162;BME280;66366;51.646;5.842;2022-12-29T04:06:14;99820.0;;;17.6;56.0
72162;BME280;66366;51.646;5.842;2022-12-29T04:11:14;99810.0;;;17.6;56.0
72162;BME280;66366;51.646;5.842;2022-12-29T04:16:14;99830.0;;;17.6;56.0
72162;BME280;66366;51.646;5.842;2022-12-29T04:21:15;99840.0;;;17.6;56.0
72162;BME280;66366;51.646;5.842;2022-12-29T04:26:14;99850.0;;;17.6;56.0
72162;BME280;66366;51.646;5.842;2022-12-29T04:31:14;99820.0;;;17.6;56.0
72162;BME280;66366;51.646;5.842;2022-12-29T04:36:15;99820.0;;;17.5;56.0
72162;BME280;66366;51.646;5.842;2022-12-29T04:41:14;99830.0;;;17.6;56.0
72162;BME280;66366;51.646;5.842;2022-12-29T04:46:15;99840.0;;;17.6;56.0
72162;BME280;66366;51.646;5.842;2022-12-29T04:51:14;99840.0;;;17.6;56.0
72162;BME280;66366;51.646;5.842;2022-12-29T04:56:15;99850.0;;;17.6;56.0
72162;BME280;66366;51.646;5.842;2022-12-29T05:01:15;99840.0;;;17.6;56.0
72162;BME280;66366;51.646;5.842;2022-12-29T05:06:15;99840.0;;;17.6;56.0
72162;BME280;66366;51.646;5.842;2022-12-29T05:11:15;99860.0;;;17.6;56.0
72162;BME280;66366;51.646;5.842;2022-12-29T05:16:15;99870.0;;;17.6;56.0
72162;BME280;66366;51.646;5.842;2022-12-29T05:21:15;99890.0;;;17.6;56.0
72162;BME280;66366;51.646;5.842;2022-12-29T05:26:15;99880.0;;;17.6;56.0
72162;BME280;66366;51.646;5.842;2022-12-29T05:31:15;99890.0;;;17.6;56.0
72162;BME280;66366;51.646;5.842;2022-12-29T05:36:15;99910.0;;;17.6;56.0
72162;BME280;66366;51.646;5.842;2022-12-29T05:41:15;99920.0;;;17.6;56.0
72162;BME280;66366;51.646;5.842;2022-12-29T05:46:15;99930.0;;;17.6;56.0
72162;BME280;66366;51.646;5.842;2022-12-29T05:51:15;99930.0;;;17.6;56.0
72162;BME280;66366;51.646;5.842;2022-12-29T05:56:15;99920.0;;;17.6;56.0
72162;BME280;66366;51.646;5.842;2022-12-29T06:01:15;99930.0;;;17.6;56.0
72162;BME280;66366;51.646;5.842;2022-12-29T06:06:15;99940.0;;;17.6;56.0
72162;BME280;66366;51.646;5.842;2022-12-29T06:11:15;99940.0;;;17.6;56.0
72162;BME280;66366;51.646;5.842;2022-12-29T06:16:15;99940.0;;;17.6;56.0
72162;BME280;66366;51.646;5.842;2022-12-29T06:21:15;99930.0;;;17.6;56.0
72162;BME280;66366;51.646;5.842;2022-12-29T06:26:15;99930.0;;;17.6;56.0
72162;BME280;66366;51.646;5.842;2022-12-29T06:31:15;99930.0;;;17.6;56.0
72162;BME280;66366;51.646;5.842;2022-12-29T06:36:15;99930.0;;;17.6;56.0
72162;BME280;66366;51.646;5.842;2022-12-29T06:41:15;99930.0;;;17.6;56.0
72162;BME280;66366;51.646;5.842;2022-12-29T06:46:15;99920.0;;;17.6;56.0
72162;BME280;66366;51.646;5.842;2022-12-29T06:51:15;99920.0;;;17.6;56.0
72162;BME280;66366;51.646;5.842;2022-12-29T06:56:15;99910.0;;;17.6;56.0
72162;BME280;66366;51.646;5.842;2022-12-29T07:01:15;99930.0;;;17.6;56.0
72162;BME280;66366;51.646;5.842;2022-12-29T07:06:15;99930.0;;;17.6;56.0
72162;BME280;66366;51.646;5.842;2022-12-29T07:11:15;99930.0;;;17.6;56.0
72162;BME280;66366;51.646;5.842;2022-12-29T07:16:15;99940.0;;;17.6;56.0
72162;BME280;66366;51.646;5.842;2022-12-29T07:21:15;99950.0;;;17.6;56.0
72162;BME280;66366;51.646;5.842;2022-12-29T07:26:15;99960.0;;;17.6;56.0
72162;BME280;66366;51.646;5.842;2022-12-29T07:31:16;99980.0;;;17.6;56.0
72162;BME280;66366;51.646;5.842;2022-12-29T07:36:17;99980.0;;;17.6;56.0
72162;BME280;66366;51.646;5.842;2022-12-29T07:41:15;100000.0;;;17.6;56.0
72162;BME280;66366;51.646;5.842;2022-12-29T07:46:15;99980.0;;;17.6;56.0
72162;BME280;66366;51.646;5.842;2022-12-29T07:51:15;99990.0;;;17.6;56.0
72162;BME280;66366;51.646;5.842;2022-12-29T07:56:15;100000.0;;;17.6;56.0
72162;BME280;66366;51.646;5.842;2022-12-29T08:01:15;100000.0;;;17.6;56.0
72162;BME280;66366;51.646;5.842;2022-12-29T08:06:15;100000.0;;;17.6;56.0
72162;BME280;66366;51.646;5.842;2022-12-29T08:11:15;100000.0;;;17.6;56.0
72162;BME280;66366;51.646;5.842;2022-12-29T08:16:16;100020.0;;;17.6;56.0
72162;BME280;66366;51.646;5.842;2022-12-29T08:21:15;100020.0;;;17.6;56.0
72162;BME280;66366;51.646;5.842;2022-12-29T08:26:15;100020.0;;;17.6;56.0
72162;BME280;66366;51.646;5.842;2022-12-29T08:31:15;100020.0;;;17.6;56.0
72162;BME280;66366;51.646;5.842;2022-12-29T08:36:15;100040.0;;;17.6;56.0
72162;BME280;66366;51.646;5.842;2022-12-29T08:41:15;100030.0;;;17.6;56.0
72162;BME280;66366;51.646;5.842;2022-12-29T08:46:16;100020.0;;;17.6;56.0
72162;BME280;66366;51.646;5.842;2022-12-29T08:51:15;100030.0;;;17.6;56.0
72162;BME280;66366;51.646;5.842;2022-12-29T08:56:15;100020.0;;;17.6;56.0
72162;BME280;66366;51.646;5.842;2022-12-29T09:01:15;100030.0;;;17.6;56.0
72162;BME280;66366;51.646;5.842;2022-12-29T09:06:16;100030.0;;;17.6;56.0
72162;BME280;66366;51.646;5.842;2022-12-29T09:11:17;100020.0;;;17.6;56.0
72162;BME280;66366;51.646;5.842;2022-12-29T09:16:16;100020.0;;;17.6;56.0
72162;BME280;66366;51.646;5.842;2022-12-29T09:21:15;100030.0;;;17.6;56.0
72162;BME280;66366;51.646;5.842;2022-12-29T09:26:15;100030.0;;;17.6;56.0
72162;BME280;66366;51.646;5.842;2022-12-29T09:31:15;100040.0;;;17.6;56.0
72162;BME280;66366;51.646;5.842;2022-12-29T09:36:15;100030.0;;;17.6;56.0
72162;BME280;66366;51.646;5.842;2022-12-29T09:41:18;100040.0;;;17.6;56.0
72162;BME280;66366;51.646;5.842;2022-12-29T09:46:25;100060.0;;;17.6;56.0
72162;BME280;66366;51.646;5.842;2022-12-29T09:51:18;100070.0;;;17.6;56.0
72162;BME280;66366;51.646;5.842;2022-12-29T09:56:18;100080.0;;;17.6;56.0
72162;BME280;66366;51.646;5.842;2022-12-29T10:01:21;100080.0;;;17.6;55.5
72162;BME280;66366;51.646;5.842;2022-12-29T10:06:31;100090.0;;;17.6;55.5
72162;BME280;66366;51.646;5.842;2022-12-29T10:11:53;100090.0;;;17.6;56.0
72162;BME280;66366;51.646;5.842;2022-12-29T10:17:24;100100.0;;;17.6;56.0
72162;BME280;66366;51.646;5.842;2022-12-29T10:22:47;100110.0;;;17.6;55.5
72162;BME280;66366;51.646;5.842;2022-12-29T10:26:17;100120.0;;;17.6;55.5
72162;BME280;66366;51.646;5.842;2022-12-29T10:31:19;100130.0;;;17.6;55.5
72162;BME280;66366;51.646;5.842;2022-12-29T10:36:21;100150.0;;;17.6;55.5
72162;BME280;66366;51.646;5.842;2022-12-29T10:41:23;100150.0;;;17.6;55.5
72162;BME280;66366;51.646;5.842;2022-12-29T10:46:18;100170.0;;;17.7;55.5
72162;BME280;66366;51.646;5.842;2022-12-29T10:51:21;100170.0;;;17.6;55.5
72162;BME280;66366;51.646;5.842;2022-12-29T10:56:36;100190.0;;;17.6;55.5
72162;BME280;66366;51.646;5.842;2022-12-29T11:01:16;100200.0;;;17.6;55.5
72162;BME280;66366;51.646;5.842;2022-12-29T11:06:25;100200.0;;;17.6;55.5
72162;BME280;66366;51.646;5.842;2022-12-29T11:11:22;100200.0;;;17.6;55.5
72162;BME280;66366;51.646;5.842;2022-12-29T11:16:29;100190.0;;;17.6;55.5
72162;BME280;66366;51.646;5.842;2022-12-29T11:21:32;100210.0;;;17.7;55.5
72162;BME280;66366;51.646;5.842;2022-12-29T11:26:20;100210.0;;;17.7;55.5
72162;BME280;66366;51.646;5.842;2022-12-29T11:31:21;100240.0;;;17.6;55.5
72162;BME280;66366;51.646;5.842;2022-12-29T11:36:17;100230.0;;;17.6;55.5
72162;BME280;66366;51.646;5.842;2022-12-29T11:41:20;100240.0;;;17.6;55.5
72162;BME280;66366;51.646;5.842;2022-12-29T11:46:20;100250.0;;;17.7;55.5
72162;BME280;66366;51.646;5.842;2022-12-29T11:51:22;100240.0;;;17.6;55.5
72162;BME280;66366;51.646;5.842;2022-12-29T11:56:17;100250.0;;;17.6;55.5
72162;BME280;66366;51.646;5.842;2022-12-29T12:01:18;100270.0;;;17.7;55.5
72162;BME280;66366;51.646;5.842;2022-12-29T12:06:19;100260.0;;;17.7;55.5
72162;BME280;66366;51.646;5.842;2022-12-29T12:11:18;100260.0;;;17.6;55.5
72162;BME280;66366;51.646;5.842;2022-12-29T12:16:18;100260.0;;;17.7;55.5
72162;BME280;66366;51.646;5.842;2022-12-29T12:21:20;100270.0;;;17.7;55.5
72162;BME280;66366;51.646;5.842;2022-12-29T12:26:18;100280.0;;;17.6;55.5
72162;BME280;66366;51.646;5.842;2022-12-29T12:31:42;100270.0;;;17.7;55.5
72162;BME280;66366;51.646;5.842;2022-12-29T12:36:57;100270.0;;;17.7;55.5
72162;BME280;66366;51.646;5.842;2022-12-29T12:42:19;100270.0;;;17.7;55.5
72162;BME280;66366;51.646;5.842;2022-12-29T12:48:28;100290.0;;;17.7;55.5
72162;BME280;66366;51.646;5.842;2022-12-29T12:54:56;100280.0;;;17.7;55.5
72162;BME280;66366;51.646;5.842;2022-12-29T13:00:12;100290.0;;;17.7;55.5
72162;BME280;66366;51.646;5.842;2022-12-29T13:04:08;100300.0;;;17.7;55.5
72162;BME280;66366;51.646;5.842;2022-12-29T13:10:32;100290.0;;;17.7;55.5
72162;BME280;66366;51.646;5.842;2022-12-29T13:15:42;100290.0;;;17.7;55.5
72162;BME280;66366;51.646;5.842;2022-12-29T13:21:02;100300.0;;;17.7;55.5
72162;BME280;66366;51.646;5.842;2022-12-29T13:26:23;100310.0;;;17.7;55.5
72162;BME280;66366;51.646;5.842;2022-12-29T13:30:26;100300.0;;;17.7;55.5
72162;BME280;66366;51.646;5.842;2022-12-29T13:35:18;100290.0;;;17.7;55.5
72162;BME280;66366;51.646;5.842;2022-12-29T13:39:05;100310.0;;;17.7;55.5
72162;BME280;66366;51.646;5.842;2022-12-29T13:41:43;100320.0;;;17.7;55.5
72162;BME280;66366;51.646;5.842;2022-12-29T13:46:24;100330.0;;;17.7;55.5
72162;BME280;66366;51.646;5.842;2022-12-29T13:51:17;100320.0;;;17.7;55.5
72162;BME280;66366;51.646;5.842;2022-12-29T13:56:34;100340.0;;;17.7;55.5
72162;BME280;66366;51.646;5.842;2022-12-29T14:01:27;100340.0;;;17.7;55.5
72162;BME280;66366;51.646;5.842;2022-12-29T14:06:24;100360.0;;;17.7;55.5
72162;BME280;66366;51.646;5.842;2022-12-29T14:11:18;100350.0;;;17.7;55.5
72162;BME280;66366;51.646;5.842;2022-12-29T14:16:25;100340.0;;;17.7;55.5
72162;BME280;66366;51.646;5.842;2022-12-29T14:21:22;100330.0;;;17.7;55.5
72162;BME280;66366;51.646;5.842;2022-12-29T14:26:35;100350.0;;;17.7;55.5
72162;BME280;66366;51.646;5.842;2022-12-29T14:31:35;100360.0;;;17.7;55.5
72162;BME280;66366;51.646;5.842;2022-12-29T14:36:36;100350.0;;;17.7;55.5
72162;BME280;66366;51.646;5.842;2022-12-29T14:41:32;100340.0;;;17.7;55.5
72162;BME280;66366;51.646;5.842;2022-12-29T14:46:16;100350.0;;;17.7;55.5
72162;BME280;66366;51.646;5.842;2022-12-29T14:51:24;100350.0;;;17.7;55.5
72162;BME280;66366;51.646;5.842;2022-12-29T14:56:18;100370.0;;;17.7;55.5
72162;BME280;66366;51.646;5.842;2022-12-29T15:01:20;100380.0;;;17.7;55.5
72162;BME280;66366;51.646;5.842;2022-12-29T15:06:16;100380.0;;;17.7;55.5
72162;BME280;66366;51.646;5.842;2022-12-29T15:11:19;100380.0;;;17.7;55.5
72162;BME280;66366;51.646;5.842;2022-12-29T15:16:24;100380.0;;;17.7;55.5
72162;BME280;66366;51.646;5.842;2022-12-29T15:21:16;100390.0;;;17.7;55.5
72162;BME280;66366;51.646;5.842;2022-12-29T15:26:16;100380.0;;;17.7;55.5
72162;BME280;66366;51.646;5.842;2022-12-29T15:31:19;100390.0;;;17.7;55.5
72162;BME280;66366;51.646;5.842;2022-12-29T15:36:21;100390.0;;;17.7;55.5
72162;BME280;66366;51.646;5.842;2022-12-29T15:41:33;100400.0;;;17.7;55.5
72162;BME280;66366;51.646;5.842;2022-12-29T15:46:17;100400.0;;;17.7;55.5
72162;BME280;66366;51.646;5.842;2022-12-29T15:51:28;100410.0;;;17.7;55.5
72162;BME280;66366;51.646;5.842;2022-12-29T15:56:17;100410.0;;;17.7;55.5
72162;BME280;66366;51.646;5.842;2022-12-29T16:01:19;100410.0;;;17.7;55.5
72162;BME280;66366;51.646;5.842;2022-12-29T16:06:27;100410.0;;;17.7;55.5
72162;BME280;66366;51.646;5.842;2022-12-29T16:11:24;100420.0;;;17.7;55.5
72162;BME280;66366;51.646;5.842;2022-12-29T16:16:20;100420.0;;;17.7;55.5
72162;BME280;66366;51.646;5.842;2022-12-29T16:21:26;100420.0;;;17.7;55.5
72162;BME280;66366;51.646;5.842;2022-12-29T16:26:18;100430.0;;;17.7;55.5
72162;BME280;66366;51.646;5.842;2022-12-29T16:31:21;100440.0;;;17.7;55.5
72162;BME280;66366;51.646;5.842;2022-12-29T16:36:30;100440.0;;;17.7;55.5
72162;BME280;66366;51.646;5.842;2022-12-29T16:41:30;100450.0;;;17.7;55.5
72162;BME280;66366;51.646;5.842;2022-12-29T16:46:31;100460.0;;;17.7;55.5
72162;BME280;66366;51.646;5.842;2022-12-29T16:51:18;100460.0;;;17.7;55.5
72162;BME280;66366;51.646;5.842;2022-12-29T16:56:18;100470.0;;;17.7;55.5
72162;BME280;66366;51.646;5.842;2022-12-29T17:01:16;100470.0;;;17.7;55.5
72162;BME280;66366;51.646;5.842;2022-12-29T17:06:18;100470.0;;;17.7;55.5
72162;BME280;66366;51.646;5.842;2022-12-29T17:11:24;100490.0;;;17.7;55.5
72162;BME280;66366;51.646;5.842;2022-12-29T17:16:16;100480.0;;;17.7;55.5
72162;BME280;66366;51.646;5.842;2022-12-29T17:21:16;100490.0;;;17.7;55.5
72162;BME280;66366;51.646;5.842;2022-12-29T17:26:16;100490.0;;;17.7;55.5
72162;BME280;66366;51.646;5.842;2022-12-29T17:31:17;100490.0;;;17.7;55.0
72162;BME280;66366;51.646;5.842;2022-12-29T17:36:16;100510.0;;;17.7;55.5
72162;BME280;66366;51.646;5.842;2022-12-29T17:41:16;100520.0;;;17.7;55.0
72162;BME280;66366;51.646;5.842;2022-12-29T17:46:17;100540.0;;;17.7;55.0
72162;BME280;66366;51.646;5.842;2022-12-29T17:51:19;100530.0;;;17.7;55.0
72162;BME280;66366;51.646;5.842;2022-12-29T17:56:17;100530.0;;;17.7;55.0
72162;BME280;66366;51.646;5.842;2022-12-29T18:01:17;100550.0;;;17.7;55.0
72162;BME280;66366;51.646;5.842;2022-12-29T18:06:16;100550.0;;;17.7;55.0
72162;BME280;66366;51.646;5.842;2022-12-29T18:11:23;100560.0;;;17.7;55.0
72162;BME280;66366;51.646;5.842;2022-12-29T18:16:17;100560.0;;;17.7;55.0
72162;BME280;66366;51.646;5.842;2022-12-29T18:21:22;100560.0;;;17.7;55.0
72162;BME280;66366;51.646;5.842;2022-12-29T18:26:20;100570.0;;;17.7;55.0
72162;BME280;66366;51.646;5.842;2022-12-29T18:31:21;100570.0;;;17.7;55.0
72162;BME280;66366;51.646;5.842;2022-12-29T18:36:21;100580.0;;;17.7;55.0
72162;BME280;66366;51.646;5.842;2022-12-29T18:41:20;100570.0;;;17.7;55.0
72162;BME280;66366;51.646;5.842;2022-12-29T18:46:17;100580.0;;;17.7;55.0
72162;BME280;66366;51.646;5.842;2022-12-29T18:51:19;100580.0;;;17.7;55.0
72162;BME280;66366;51.646;5.842;2022-12-29T18:56:17;100590.0;;;17.7;55.0
72162;BME280;66366;51.646;5.842;2022-12-29T19:01:19;100600.0;;;17.7;55.0
72162;BME280;66366;51.646;5.842;2022-12-29T19:06:18;100590.0;;;17.7;55.0
72162;BME280;66366;51.646;5.842;2022-12-29T19:11:17;100590.0;;;17.7;55.0
72162;BME280;66366;51.646;5.842;2022-12-29T19:16:21;100600.0;;;17.7;55.0
72162;BME280;66366;51.646;5.842;2022-12-29T19:21:17;100600.0;;;17.7;55.0
72162;BME280;66366;51.646;5.842;2022-12-29T19:26:28;100610.0;;;17.7;55.0
72162;BME280;66366;51.646;5.842;2022-12-29T19:31:17;100610.0;;;17.7;55.0
72162;BME280;66366;51.646;5.842;2022-12-29T19:36:17;100620.0;;;17.7;55.0
72162;BME280;66366;51.646;5.842;2022-12-29T19:41:17;100620.0;;;17.7;54.5
72162;BME280;66366;51.646;5.842;2022-12-29T19:46:18;100630.0;;;17.7;54.5
72162;BME280;66366;51.646;5.842;2022-12-29T19:51:17;100640.0;;;17.7;54.5
72162;BME280;66366;51.646;5.842;2022-12-29T19:56:17;100640.0;;;17.7;54.5
72162;BME280;66366;51.646;5.842;2022-12-29T20:01:20;100640.0;;;17.7;54.5
72162;BME280;66366;51.646;5.842;2022-12-29T20:06:18;100640.0;;;17.7;54.5
72162;BME280;66366;51.646;5.842;2022-12-29T20:11:17;100640.0;;;17.7;54.5
72162;BME280;66366;51.646;5.842;2022-12-29T20:16:19;100650.0;;;17.7;54.5
72162;BME280;66366;51.646;5.842;2022-12-29T20:21:19;100650.0;;;17.7;54.5
72162;BME280;66366;51.646;5.842;2022-12-29T20:26:20;100650.0;;;17.7;54.5
72162;BME280;66366;51.646;5.842;2022-12-29T20:31:19;100660.0;;;17.7;54.5
72162;BME280;66366;51.646;5.842;2022-12-29T20:36:21;100660.0;;;17.7;54.5
72162;BME280;66366;51.646;5.842;2022-12-29T20:41:17;100670.0;;;17.7;54.5
72162;BME280;66366;51.646;5.842;2022-12-29T20:46:17;100670.0;;;17.7;54.5
72162;BME280;66366;51.646;5.842;2022-12-29T20:51:18;100660.0;;;17.7;54.5
72162;BME280;66366;51.646;5.842;2022-12-29T20:56:19;100660.0;;;17.7;54.5
72162;BME280;66366;51.646;5.842;2022-12-29T21:01:20;100660.0;;;17.7;54.5
72162;BME280;66366;51.646;5.842;2022-12-29T21:06:17;100680.0;;;17.7;54.5
72162;BME280;66366;51.646;5.842;2022-12-29T21:11:17;100680.0;;;17.7;54.5
72162;BME280;66366;51.646;5.842;2022-12-29T21:16:17;100680.0;;;17.7;54.5
72162;BME280;66366;51.646;5.842;2022-12-29T21:21:19;100680.0;;;17.7;54.5
72162;BME280;66366;51.646;5.842;2022-12-29T21:26:19;100700.0;;;17.7;54.5
72162;BME280;66366;51.646;5.842;2022-12-29T21:31:25;100690.0;;;17.7;54.5
72162;BME280;66366;51.646;5.842;2022-12-29T21:36:17;100700.0;;;17.7;54.5
72162;BME280;66366;51.646;5.842;2022-12-29T21:41:18;100710.0;;;17.7;54.5
72162;BME280;66366;51.646;5.842;2022-12-29T21:46:17;100720.0;;;17.7;54.5
72162;BME280;66366;51.646;5.842;2022-12-29T21:51:17;100720.0;;;17.7;54.5
72162;BME280;66366;51.646;5.842;2022-12-29T21:56:18;100720.0;;;17.7;54.5
72162;BME280;66366;51.646;5.842;2022-12-29T22:01:17;100730.0;;;17.7;54.0
72162;BME280;66366;51.646;5.842;2022-12-29T22:06:17;100730.0;;;17.7;54.0
72162;BME280;66366;51.646;5.842;2022-12-29T22:11:17;100740.0;;;17.7;54.0
72162;BME280;66366;51.646;5.842;2022-12-29T22:16:17;100740.0;;;17.7;54.0
72162;BME280;66366;51.646;5.842;2022-12-29T22:21:18;100760.0;;;17.7;54.0
72162;BME280;66366;51.646;5.842;2022-12-29T22:26:17;100760.0;;;17.7;54.0
72162;BME280;66366;51.646;5.842;2022-12-29T22:31:22;100780.0;;;17.7;54.0
72162;BME280;66366;51.646;5.842;2022-12-29T22:36:17;100790.0;;;17.7;54.0
72162;BME280;66366;51.646;5.842;2022-12-29T22:41:17;100780.0;;;17.7;54.0
72162;BME280;66366;51.646;5.842;2022-12-29T22:46:18;100790.0;;;17.6;54.5
72162;BME280;66366;51.646;5.842;2022-12-29T22:51:17;100790.0;;;17.6;54.0
72162;BME280;66366;51.646;5.842;2022-12-29T22:56:18;100800.0;;;17.7;54.0
72162;BME280;66366;51.646;5.842;2022-12-29T23:01:18;100800.0;;;17.7;54.0
72162;BME280;66366;51.646;5.842;2022-12-29T23:06:18;100810.0;;;17.7;54.0
72162;BME280;66366;51.646;5.842;2022-12-29T23:11:17;100830.0;;;17.7;54.0
72162;BME280;66366;51.646;5.842;2022-12-29T23:16:19;100830.0;;;17.7;54.0
72162;BME280;66366;51.646;5.842;2022-12-29T23:21:18;100840.0;;;17.7;54.0
72162;BME280;66366;51.646;5.842;2022-12-29T23:26:19;100850.0;;;17.6;54.0
72162;BME280;66366;51.646;5.842;2022-12-29T23:31:18;100850.0;;;17.7;54.0
72162;BME280;66366;51.646;5.842;2022-12-29T23:36:17;100860.0;;;17.7;54.0
72162;BME280;66366;51.646;5.842;2022-12-29T23:41:17;100860.0;;;17.6;54.0
72162;BME280;66366;51.646;5.842;2022-12-29T23:46:21;100860.0;;;17.6;54.0
72162;BME280;66366;51.646;5.842;2022-12-29T23:51:18;100860.0;;;17.6;54.0
72162;BME280;66366;51.646;5.842;2022-12-29T23:56:20;100880.0;;;17.6;54.0
